Webcam 1 more information Webcam 1


Webcam 2 more information Webcam 2


altri nostri siti meteo:

TortoretometeolidoSito sul meteo

TortoretometeolidoSito sul meteo

Pomeziameteo 1Sito sul meteo

Pomeziameteo DashboardSito sul meteo

Caput FrigorisSito sul meteo

BarcellonameteoSito sul meteo

MeteoipassiSito sul meteo

ViterbometeoSito sul meteo

CastelnuovovomanometeoSito sul meteo



Nessuna attenzione particolare richiesta.    Non ci sono allerte meteo

Weather Underground Storia pagina Testo

Quotidiano Riepilogo per aprile 24, 2019 Unita:  Metrico    Inglese   Entrambi
« Indietro Day
Avanti Day »
Quotidiano Settimanale mensile Annuale Personalizzato
  Attuale: Max: Min: Media:
Temperatura: -6.8 °C -17.8 °C -11 °C -9.4 °C
P.to Rugiada: -9.4 °C -17.8 °C -11.9 °C -10.7 °C
Umidita: 75 % Humidity % 73 % 86 %
Vel. Vento: 0 km/h 0 km/h 0 km/h 0.3 km/h
Raffiche: 0 km/h 0 km/h - -
Vento:Calm - - South
Pressione: 34371.3 hPa 0 hPa 34188.4 hPa -
Precipitazioni: 0 mm      
Historical Graphs
 
 
Dati di tabella per il aprile 24, 2019
Tempo Temperatura P.to Rugiada Pressione Vento Vel. Vento Raffiche Umidita Tasso delle precipitazioni (oraria)
-17.8 °C -17.8 °C 0 hPa Calm     Humidity % 0 mm
00:00 -9.6 °C -10.6 °C 34188.4 hPa Calm     90 % 0 mm
00:05 -9.6 °C -10.6 °C 34188.4 hPa Calm     90 % 0 mm
00:10 -9.6 °C -10.6 °C 34188.4 hPa Calm     90 % 0 mm
00:15 -9.6 °C -10.5 °C 34188.4 hPa SW 2.6 km/h 7.7 km/h 90 % 0 mm
00:20 -9.6 °C -10.4 °C 34188.4 hPa East 5.1 km/h 15.6 km/h 91 % 0 mm
00:25 -9.4 °C -10.4 °C 34188.4 hPa Calm   15.6 km/h 90 % 0 mm
00:30 -9.4 °C -10.4 °C 34188.4 hPa Calm     90 % 0 mm
00:35 -9.4 °C -10.4 °C 34188.4 hPa Calm     90 % 0 mm
00:40 -9.6 °C -10.4 °C 34198.6 hPa SSE 5.1 km/h 7.7 km/h 90 % 0 mm
00:45 -9.6 °C -10.5 °C 34198.6 hPa Calm   5.1 km/h 90 % 0 mm
00:50 -9.6 °C -10.5 °C 34198.6 hPa Calm     90 % 0 mm
00:55 -9.6 °C -10.5 °C 34198.6 hPa Calm     90 % 0 mm
01:00 -9.6 °C -10.5 °C 34198.6 hPa Calm     90 % 0 mm
01:05 -9.6 °C -10.4 °C 34198.6 hPa Calm   12.9 km/h 91 % 0 mm
01:10 -9.6 °C -10.4 °C 34198.6 hPa Calm     91 % 0 mm
01:15 -9.6 °C -10.5 °C 34198.6 hPa Calm     90 % 0 mm
01:20 -9.7 °C -10.6 °C 34198.6 hPa Calm     90 % 0 mm
01:25 -9.8 °C -10.7 °C 34198.6 hPa Calm   7.7 km/h 90 % 0 mm
01:30 -9.9 °C -10.8 °C 34198.6 hPa Calm     90 % 0 mm
01:35 -9.9 °C -10.9 °C 34198.6 hPa Calm     90 % 0 mm
01:40 -10 °C -10.9 °C 34198.6 hPa Calm     90 % 0 mm
01:45 -10 °C -10.8 °C 34198.6 hPa Calm     91 % 0 mm
01:50 -10.1 °C -10.9 °C 34198.6 hPa Calm     90 % 0 mm
01:55 -10.1 °C -11 °C 34212.1 hPa Calm     90 % 0 mm
02:00 -10.1 °C -10.9 °C 34198.6 hPa NNW 5.1 km/h 10.3 km/h 91 % 0 mm
02:05 -10 °C -10.8 °C 34212.1 hPa Calm   5.1 km/h 91 % 0 mm
02:10 -10 °C -10.8 °C 34212.1 hPa Calm     91 % 0 mm
02:15 -9.9 °C -10.8 °C 34212.1 hPa Calm     91 % 0 mm
02:20 -9.9 °C -10.8 °C 34212.1 hPa Calm     91 % 0 mm
02:25 -9.9 °C -10.8 °C 34212.1 hPa Calm     91 % 0 mm
02:30 -9.9 °C -10.8 °C 34212.1 hPa Calm     91 % 0 mm
02:35 -10 °C -10.8 °C 34212.1 hPa Calm     91 % 0 mm
02:40 -10.1 °C -11 °C 34222.3 hPa Calm     90 % 0 mm
02:45 -10.1 °C -10.9 °C 34222.3 hPa NNW 5.1 km/h 7.7 km/h 91 % 0 mm
02:50 -10.2 °C -11 °C 34222.3 hPa Calm   7.7 km/h 91 % 0 mm
02:55 -10.2 °C -11 °C 34222.3 hPa Calm     91 % 0 mm
03:00 -10.2 °C -11 °C 34222.3 hPa Calm     91 % 0 mm
03:05 -10.2 °C -11 °C 34222.3 hPa Calm     91 % 0 mm
03:10 -10.1 °C -10.9 °C 34222.3 hPa Calm   5.1 km/h 91 % 0 mm
03:15 -10.2 °C -11 °C 34222.3 hPa Calm     91 % 0 mm
03:20 -10.1 °C -10.8 °C 34222.3 hPa Calm   2.6 km/h 92 % 0 mm
03:25 -10.1 °C -10.8 °C 34222.3 hPa Calm     92 % 0 mm
03:30 -10 °C -10.8 °C 34235.8 hPa Calm     91 % 0 mm
03:35 -9.9 °C -10.8 °C 34235.8 hPa Calm     91 % 0 mm
03:40 -10 °C -10.8 °C 34235.8 hPa Calm     91 % 0 mm
03:45 -10.1 °C -10.9 °C 34235.8 hPa Calm     91 % 0 mm
03:50 -10.1 °C -10.9 °C 34235.8 hPa Calm     91 % 0 mm
03:55 -10.2 °C -11.2 °C 34235.8 hPa Calm     90 % 0 mm
04:00 -10.3 °C -11.1 °C 34235.8 hPa Calm     91 % 0 mm
04:05 -10.3 °C -11.1 °C 34235.8 hPa Calm     91 % 0 mm
04:10 -10.3 °C -11.1 °C 34235.8 hPa Calm     91 % 0 mm
04:15 -10.3 °C -11.1 °C 34235.8 hPa Calm     91 % 0 mm
04:20 -10.3 °C -11.1 °C 34235.8 hPa Calm     91 % 0 mm
04:25 -10.2 °C -11 °C 34235.8 hPa Calm     91 % 0 mm
04:30 -10.2 °C -11 °C 34246 hPa Calm     91 % 0 mm
04:35 -10.2 °C -11 °C 34246 hPa Calm     91 % 0 mm
04:40 -10.2 °C -11 °C 34246 hPa Calm   7.7 km/h 91 % 0 mm
04:45 -10.1 °C -10.9 °C 34256.2 hPa Calm     91 % 0 mm
04:50 -10.1 °C -10.9 °C 34256.2 hPa Calm   2.6 km/h 91 % 0 mm
04:55 -10 °C -10.8 °C 34256.2 hPa Calm     91 % 0 mm
05:00 -10.1 °C -10.9 °C 34256.2 hPa Calm     91 % 0 mm
05:05 -10.1 °C -10.9 °C 34256.2 hPa Calm     91 % 0 mm
05:10 -10.1 °C -11.1 °C 34256.2 hPa Calm     90 % 0 mm
05:15 -10.2 °C -11.1 °C 34256.2 hPa Calm     90 % 0 mm
05:20 -10.2 °C -11.1 °C 34256.2 hPa Calm     90 % 0 mm
05:25 -10.2 °C -11.2 °C 34256.2 hPa Calm     90 % 0 mm
05:30 -10.2 °C -11.2 °C 34269.7 hPa Calm     90 % 0 mm
05:35 -10.2 °C -11.2 °C 34269.7 hPa Calm     90 % 0 mm
05:40 -10.3 °C -11.2 °C 34269.7 hPa Calm     90 % 0 mm
05:45 -10.4 °C -11.3 °C 34269.7 hPa Calm     90 % 0 mm
05:50 -10.5 °C -11.4 °C 34269.7 hPa Calm     90 % 0 mm
05:55 -10.6 °C -11.6 °C 34269.7 hPa Calm     89 % 0 mm
06:00 -10.7 °C -11.7 °C 34269.7 hPa Calm     89 % 0 mm
06:05 -10.8 °C -11.7 °C 34279.9 hPa Calm     90 % 0 mm
06:10 -10.8 °C -11.7 °C 34279.9 hPa Calm   5.1 km/h 90 % 0 mm
06:15 -10.8 °C -11.7 °C 34279.9 hPa Calm     90 % 0 mm
06:20 -10.9 °C -11.8 °C 34279.9 hPa Calm     90 % 0 mm
06:25 -10.9 °C -11.8 °C 34279.9 hPa Calm     90 % 0 mm
06:30 -10.9 °C -11.8 °C 34293.4 hPa Calm     90 % 0 mm
06:35 -11 °C -11.9 °C 34293.4 hPa Calm     90 % 0 mm
06:40 -10.9 °C -11.8 °C 34293.4 hPa Calm     90 % 0 mm
06:45 -10.9 °C -11.8 °C 34293.4 hPa Calm     90 % 0 mm
06:50 -10.8 °C -11.7 °C 34303.6 hPa Calm     90 % 0 mm
06:55 -10.8 °C -11.6 °C 34303.6 hPa Calm     91 % 0 mm
07:00 -10.7 °C -11.6 °C 34303.6 hPa Calm     90 % 0 mm
07:05 -10.7 °C -11.6 °C 34303.6 hPa Calm     90 % 0 mm
07:10 -10.7 °C -11.6 °C 34303.6 hPa Calm     90 % 0 mm
07:15 -10.6 °C -11.4 °C 34303.6 hPa Calm     91 % 0 mm
07:20 -10.5 °C -11.4 °C 34303.6 hPa Calm     90 % 0 mm
07:25 -10.4 °C -11.3 °C 34303.6 hPa Calm     90 % 0 mm
07:30 -10.4 °C -11.2 °C 34303.6 hPa Calm     91 % 0 mm
07:35 -10.2 °C -11.2 °C 34303.6 hPa Calm     90 % 0 mm
07:40 -10.2 °C -11 °C 34313.7 hPa Calm     91 % 0 mm
07:45 -10 °C -10.9 °C 34313.7 hPa Calm     90 % 0 mm
07:50 -9.9 °C -10.8 °C 34313.7 hPa Calm     90 % 0 mm
07:55 -9.8 °C -10.7 °C 34313.7 hPa Calm     90 % 0 mm
08:00 -9.6 °C -10.6 °C 34313.7 hPa Calm     90 % 0 mm
08:05 -9.4 °C -10.4 °C 34313.7 hPa Calm     90 % 0 mm
08:10 -9.3 °C -10.3 °C 34313.7 hPa Calm     89 % 0 mm
08:15 -9.1 °C -10.1 °C 34313.7 hPa Calm     89 % 0 mm
08:20 -8.8 °C -9.9 °C 34327.3 hPa Calm     88 % 0 mm
08:25 -8.7 °C -9.9 °C 34327.3 hPa Calm     87 % 0 mm
08:30 -8.6 °C -9.9 °C 34327.3 hPa Calm     86 % 0 mm
08:35 -8.4 °C -9.9 °C 34327.3 hPa Calm     84 % 0 mm
08:40 -8.3 °C -9.9 °C 34327.3 hPa Calm     84 % 0 mm
08:45 -8.2 °C -10.1 °C 34327.3 hPa Calm     81 % 0 mm
08:50 -8.1 °C -9.9 °C 34327.3 hPa Calm     81 % 0 mm
08:55 -8.1 °C -10.1 °C 34327.3 hPa Calm     79 % 0 mm
09:00 -7.9 °C -10.1 °C 34327.3 hPa Calm     79 % 0 mm
09:05 -7.8 °C -10.1 °C 34327.3 hPa Calm     78 % 0 mm
09:10 -7.8 °C -10.2 °C 34327.3 hPa Calm     76 % 0 mm
09:15 -7.9 °C -10.2 °C 34327.3 hPa Calm     77 % 0 mm
09:20 -8.1 °C -10.2 °C 34327.3 hPa Calm     78 % 0 mm
09:25 -8 °C -10.1 °C 34337.4 hPa Calm     79 % 0 mm
09:30 -7.8 °C -9.9 °C 34327.3 hPa Calm     79 % 0 mm
09:35 -7.7 °C -9.9 °C 34337.4 hPa Calm     78 % 0 mm
09:40 -7.6 °C -9.8 °C 34337.4 hPa Calm     77 % 0 mm
09:45 -7.4 °C -9.8 °C 34337.4 hPa Calm     76 % 0 mm
09:50 -7.4 °C -9.9 °C 34347.6 hPa Calm     75 % 0 mm
09:55 -7.6 °C -10.2 °C 34347.6 hPa Calm     75 % 0 mm
10:00 -7.7 °C -10.1 °C 34347.6 hPa Calm     76 % 0 mm
10:05 -7.9 °C -10.5 °C 34347.6 hPa Calm     74 % 0 mm
10:10 -7.8 °C -10.4 °C 34361.1 hPa Calm     74 % 0 mm
10:15 -7.9 °C -10.4 °C 34361.1 hPa Calm   10.3 km/h 75 % 0 mm
10:20 -7.9 °C -10.4 °C 34361.1 hPa Calm     75 % 0 mm
10:25 -7.7 °C -10.3 °C 34361.1 hPa SE 5.1 km/h 12.9 km/h 75 % 0 mm
10:30 -7.7 °C -10.3 °C 34361.1 hPa East 5.1 km/h 12.9 km/h 75 % 0 mm
10:35 -7.7 °C -10.2 °C 34361.1 hPa East 2.6 km/h 12.9 km/h 75 % 0 mm
10:40 -7.6 °C -10.2 °C 34361.1 hPa Calm   5.1 km/h 74 % 0 mm
10:45 -7.6 °C -10.3 °C 34371.3 hPa Calm   7.7 km/h 73 % 0 mm
10:50 -7.7 °C -10.3 °C 34371.3 hPa Calm   10.3 km/h 74 % 0 mm
10:55 -7.4 °C -10 °C 34371.3 hPa Calm   2.6 km/h 75 % 0 mm
11:00 -7.3 °C -9.8 °C 34371.3 hPa Calm   5.1 km/h 75 % 0 mm
11:05 -7.3 °C -9.8 °C 34371.3 hPa Calm   7.7 km/h 75 % 0 mm
11:10 -7.1 °C -9.6 °C 34371.3 hPa Calm   5.1 km/h 75 % 0 mm
11:15 -6.9 °C -9.6 °C 34371.3 hPa Calm     74 % 0 mm
11:20 -6.9 °C -9.6 °C 34371.3 hPa Calm   2.6 km/h 74 % 0 mm
11:25 -6.9 °C -9.6 °C 34371.3 hPa Calm   10.3 km/h 74 % 0 mm
11:30 -6.9 °C -9.6 °C 34371.3 hPa Calm   5.1 km/h 74 % 0 mm
11:35 -6.8 °C -9.5 °C 34371.3 hPa Calm   5.1 km/h 74 % 0 mm
11:40 -6.9 °C -9.6 °C 34371.3 hPa Calm   2.6 km/h 74 % 0 mm
11:45 -6.8 °C -9.4 °C 34371.3 hPa Calm     75 % 0 mm
Stazione meteorologica di Tortoreto (TE)
complimenti di Weather Underground - 3.25 mb

Script sviluppato da  Jim McMurry - jmcmurry@mwt.net Adattato per il modello da  Wim van der Kuil - Leuven-Template.eu

Potete trovare le nostre info meteo anche a:

European Weather Network

Weather Underground

AWEKAS

Citizen Weather Observer Program (CWOP)

HAMweather, WeatherForYou, PWS Weather

Strumentazione usata:

Stazione meteo
Davis VP2

Programma gestore dati meteo
WVIEW

Server per i dati meteo
My Computer

Provider
My provider

Davis VP2

WVIEW

My Computer

My provider